Terminal Aerodrome Forecast
Issued by NWS Grand Rapids, MI

Current Version | Previous Version | Text Only | Print | Product List | Glossary On
Versions: 1 2 3 4 5 6 7 8 9 10 11 12 13 14 15 16 17 18 19 20 21 22 23 24 25 26 27 28
000
FTUS43 KGRR 050000 AAA
TAFGRR
TAF AMD
KGRR 050042Z 0501/0524 30011G16KT P6SM VCSH SCT035
     FM050400 33006KT P6SM BKN035
     FM051400 26005KT P6SM VCSH BKN050=

USA.gov is the U.S. government's official web portal to all federal, state and local government web resources and services.